createdAt,value
2019-05-16T00:02:01.209Z,37.62
2019-05-16T00:04:30.395Z,36.47
2019-05-16T00:06:59.716Z,37.36
2019-05-16T00:09:29.025Z,37.30
2019-05-16T00:11:58.439Z,37.07
2019-05-16T00:14:28.163Z,36.94
2019-05-16T00:16:58.913Z,36.63
2019-05-16T00:19:28.764Z,36.36
2019-05-16T00:21:58.203Z,37.24
2019-05-16T00:24:29.104Z,36.58
2019-05-16T00:26:58.633Z,37.39
2019-05-16T00:29:27.935Z,36.75
2019-05-16T00:31:58.050Z,37.00
2019-05-16T00:34:27.982Z,37.31
2019-05-16T00:36:58.208Z,37.61
2019-05-16T00:39:28.128Z,37.19
2019-05-16T00:41:58.367Z,37.14
2019-05-16T00:44:28.153Z,37.05
2019-05-16T00:46:58.071Z,36.86
2019-05-16T00:49:28.102Z,36.88
2019-05-16T00:51:58.434Z,38.13
2019-05-16T00:54:27.978Z,38.88
2019-05-16T00:56:57.859Z,37.06
2019-05-16T00:59:27.800Z,37.24
2019-05-16T01:01:58.755Z,36.22
2019-05-16T01:04:28.785Z,36.76
2019-05-16T01:06:58.522Z,36.66
2019-05-16T01:09:29.257Z,36.92
2019-05-16T01:11:58.563Z,37.02
2019-05-16T01:14:28.235Z,37.42
2019-05-16T01:16:58.127Z,37.00
2019-05-16T01:19:27.872Z,37.01
2019-05-16T01:21:58.956Z,36.56
2019-05-16T01:24:29.223Z,36.81
2019-05-16T01:26:58.626Z,36.59
2019-05-16T01:29:28.272Z,37.43
2019-05-16T01:31:59.067Z,37.69
2019-05-16T01:34:28.541Z,37.48
2019-05-16T01:36:59.028Z,36.76
2019-05-16T01:39:28.832Z,37.73
2019-05-16T01:41:58.763Z,37.71
2019-05-16T01:44:28.833Z,38.07
2019-05-16T01:46:58.698Z,37.03
2019-05-16T01:49:28.124Z,36.67
2019-05-16T01:51:58.701Z,35.98
2019-05-16T01:54:28.354Z,35.38
2019-05-16T01:56:59.486Z,35.28
2019-05-16T01:59:28.955Z,35.16
2019-05-16T02:02:00.699Z,35.78
2019-05-16T02:04:29.319Z,35.53
2019-05-16T02:06:58.655Z,34.82
2019-05-16T02:09:28.188Z,35.32
2019-05-16T02:11:58.864Z,34.45
2019-05-16T02:14:28.427Z,34.39
2019-05-16T02:16:58.174Z,34.67
2019-05-16T02:19:28.061Z,34.45
2019-05-16T02:21:59.635Z,34.63
2019-05-16T02:24:28.580Z,34.54
2019-05-16T02:26:58.914Z,34.53
2019-05-16T02:29:29.886Z,34.80
2019-05-16T02:32:02.097Z,33.15
2019-05-16T02:34:30.855Z,33.42
2019-05-16T02:37:18.862Z,33.03
2019-05-16T02:39:31.286Z,32.24
2019-05-16T02:42:01.166Z,34.25
2019-05-16T02:44:31.971Z,34.52
2019-05-16T02:47:01.910Z,34.75
2019-05-16T02:49:34.087Z,33.35
2019-05-16T02:52:02.406Z,32.67
2019-05-16T02:54:31.783Z,33.25
2019-05-16T02:57:01.545Z,33.16
2019-05-16T02:59:30.960Z,33.68
2019-05-16T03:02:01.070Z,33.23
2019-05-16T03:04:30.837Z,34.05
2019-05-16T03:07:01.491Z,32.73
2019-05-16T03:09:32.246Z,32.85
2019-05-16T03:12:03.352Z,32.44
2019-05-16T03:14:33.167Z,32.56
2019-05-16T03:17:04.808Z,31.76
2019-05-16T03:19:37.292Z,31.53
2019-05-16T03:22:11.423Z,31.55
2019-05-16T03:24:42.074Z,32.51
2019-05-16T03:27:11.022Z,32.96
2019-05-16T03:29:41.745Z,31.81
2019-05-16T03:32:13.870Z,32.13
2019-05-16T03:34:44.010Z,33.11
2019-05-16T03:37:14.656Z,33.10
2019-05-16T03:39:44.486Z,32.29
2019-05-16T03:42:13.785Z,32.22
2019-05-16T03:44:43.121Z,33.32
2019-05-16T03:47:12.389Z,34.12
2019-05-16T03:49:42.365Z,32.70
2019-05-16T03:52:11.918Z,32.80
2019-05-16T03:54:42.012Z,32.61
2019-05-16T03:57:11.715Z,32.80
2019-05-16T03:59:41.174Z,32.39
2019-05-16T04:02:10.969Z,33.59
2019-05-16T04:04:43.553Z,33.96
2019-05-16T04:07:12.767Z,33.71
2019-05-16T04:09:42.032Z,32.82
2019-05-16T04:12:11.298Z,33.70
2019-05-16T04:14:41.091Z,34.07
2019-05-16T04:17:11.049Z,34.47
2019-05-16T04:19:41.527Z,33.29
2019-05-16T04:22:15.106Z,34.48
2019-05-16T04:24:44.615Z,33.57
2019-05-16T04:27:13.871Z,34.59
2019-05-16T04:29:46.026Z,33.66
2019-05-16T04:32:15.313Z,33.95
2019-05-16T04:34:44.613Z,34.56
2019-05-16T04:37:15.221Z,32.98
2019-05-16T04:39:44.496Z,31.71
2019-05-16T04:42:13.758Z,33.60
2019-05-16T04:44:43.587Z,33.29
2019-05-16T04:47:12.854Z,32.52
2019-05-16T04:49:42.101Z,32.81
2019-05-16T04:52:11.586Z,33.32
2019-05-16T04:54:41.988Z,32.32
2019-05-16T04:57:12.025Z,31.70
2019-05-16T04:59:41.951Z,32.62
2019-05-16T05:02:12.313Z,33.12
2019-05-16T05:04:41.959Z,32.15
2019-05-16T05:07:11.481Z,33.02
2019-05-16T05:09:41.152Z,32.87
2019-05-16T05:12:11.409Z,33.27
2019-05-16T05:14:41.634Z,32.08
2019-05-16T05:17:11.061Z,32.99
2019-05-16T05:19:41.371Z,32.45
2019-05-16T05:22:10.815Z,32.57
2019-05-16T05:24:40.562Z,33.71
2019-05-16T05:27:10.960Z,32.33
2019-05-16T05:29:40.203Z,33.86
2019-05-16T05:32:14.402Z,34.53
2019-05-16T05:34:43.119Z,34.25
2019-05-16T05:37:12.770Z,34.36
2019-05-16T05:39:42.137Z,34.03
2019-05-16T05:42:11.459Z,32.93
2019-05-16T05:44:40.674Z,33.29
2019-05-16T05:47:10.794Z,34.75
2019-05-16T05:49:40.534Z,33.87
2019-05-16T05:52:12.041Z,34.09
2019-05-16T05:54:41.010Z,33.23
2019-05-16T05:57:10.326Z,34.76
2019-05-16T05:59:40.488Z,35.00
2019-05-16T06:02:11.233Z,33.55
2019-05-16T06:04:42.877Z,34.09
2019-05-16T06:10:20.181Z,32.68
2019-05-16T06:12:50.153Z,34.05
2019-05-16T06:15:20.328Z,34.94
2019-05-16T06:17:50.827Z,33.38
2019-05-16T06:20:20.550Z,35.18
2019-05-16T06:22:50.924Z,34.31
2019-05-16T06:25:22.991Z,33.14
2019-05-16T06:27:51.374Z,35.70
2019-05-16T06:30:21.520Z,33.78
2019-05-16T06:32:50.978Z,31.98
2019-05-16T06:35:23.676Z,33.63
2019-05-16T06:37:51.435Z,32.29
2019-05-16T06:40:21.084Z,32.61
2019-05-16T06:42:50.942Z,32.26
2019-05-16T06:45:20.643Z,34.25
2019-05-16T06:47:50.457Z,34.40
2019-05-16T06:50:20.905Z,35.45
2019-05-16T06:52:50.409Z,33.60
2019-05-16T06:55:20.492Z,34.31
2019-05-16T06:57:50.437Z,35.47
2019-05-16T07:00:21.030Z,34.85
2019-05-16T07:02:50.567Z,34.79
2019-05-16T07:05:20.778Z,33.42
2019-05-16T07:07:50.955Z,33.38
2019-05-16T07:10:20.566Z,33.95
2019-05-16T07:12:50.422Z,34.27
2019-05-16T07:15:20.661Z,35.20
2019-05-16T07:17:50.684Z,34.24
2019-05-16T07:20:21.212Z,35.15
2019-05-16T07:22:50.593Z,36.09
2019-05-16T07:25:20.903Z,34.38
2019-05-16T07:27:50.970Z,32.98
2019-05-16T07:30:20.788Z,34.20
2019-05-16T07:32:50.206Z,33.07
2019-05-16T07:35:20.480Z,32.33
2019-05-16T07:37:50.158Z,34.07
2019-05-16T07:40:26.484Z,33.30
2019-05-16T07:42:51.137Z,33.18
2019-05-16T07:45:21.009Z,32.36
2019-05-16T07:47:50.905Z,33.31
2019-05-16T07:50:20.616Z,32.67
2019-05-16T07:52:51.091Z,32.12
2019-05-16T07:55:21.123Z,32.48
2019-05-16T07:57:50.774Z,33.86
2019-05-16T08:00:21.588Z,33.16
2019-05-16T08:02:51.466Z,32.02
2019-05-16T08:05:21.334Z,33.62
2019-05-16T08:07:51.499Z,32.88
2019-05-16T08:10:36.990Z,33.03
2019-05-16T08:12:52.250Z,31.63
2019-05-16T08:15:21.680Z,32.68
2019-05-16T08:17:51.388Z,32.64
2019-05-16T08:20:21.459Z,33.24
2019-05-16T08:22:51.305Z,32.14
2019-05-16T08:25:20.658Z,33.35
2019-05-16T08:30:21.335Z,32.19
2019-05-16T08:32:52.764Z,30.63
2019-05-16T08:35:21.759Z,33.96
2019-05-16T08:37:51.639Z,31.14
2019-05-16T08:40:21.711Z,31.30
2019-05-16T08:42:52.069Z,31.55
2019-05-16T08:45:21.573Z,32.52
2019-05-16T08:47:52.562Z,32.18
2019-05-16T08:50:05.859Z,30.98
2019-05-16T08:50:22.086Z,32.23
2019-05-16T08:52:52.931Z,31.41
2019-05-16T08:55:22.457Z,33.31
2019-05-16T08:57:54.950Z,30.86
2019-05-16T09:00:25.528Z,30.52
2019-05-16T09:02:54.854Z,29.86
2019-05-16T09:05:24.137Z,28.72
2019-05-16T09:08:00.673Z,31.31
2019-05-16T09:12:57.221Z,29.82
2019-05-16T09:15:27.391Z,29.32
2019-05-16T09:17:58.135Z,30.51
2019-05-16T09:20:28.255Z,30.06
2019-05-16T09:22:58.042Z,30.50
2019-05-16T09:25:27.608Z,29.49
2019-05-16T09:27:57.078Z,29.10
2019-05-16T09:30:27.416Z,31.41
2019-05-16T09:32:58.802Z,30.38
2019-05-16T09:35:28.250Z,29.85
2019-05-16T09:37:57.623Z,29.35
2019-05-16T09:40:27.824Z,30.69
2019-05-16T09:42:57.393Z,29.68
2019-05-16T09:45:27.396Z,28.83
2019-05-16T09:47:57.451Z,28.38
2019-05-16T09:50:27.180Z,29.23
2019-05-16T09:52:56.663Z,29.68
2019-05-16T09:55:26.817Z,27.74
2019-05-16T09:57:58.300Z,27.16
2019-05-16T10:00:28.647Z,27.88
2019-05-16T10:02:58.171Z,29.21
2019-05-16T10:05:27.523Z,29.05
2019-05-16T10:07:57.527Z,30.03
2019-05-16T10:10:26.918Z,29.19
2019-05-16T10:12:56.226Z,29.65
2019-05-16T10:15:27.007Z,29.05
2019-05-16T10:17:57.541Z,29.23
2019-05-16T10:20:27.487Z,28.11
2019-05-16T10:22:58.046Z,27.73
2019-05-16T10:25:27.913Z,30.61
2019-05-16T10:27:57.328Z,30.72
2019-05-16T10:30:27.009Z,30.58
2019-05-16T10:32:57.550Z,30.23
2019-05-16T10:35:30.157Z,29.63
2019-05-16T10:37:58.322Z,29.33
2019-05-16T10:40:27.645Z,29.95
2019-05-16T10:42:57.882Z,30.71
2019-05-16T10:45:27.517Z,29.79
2019-05-16T10:47:56.787Z,31.64
2019-05-16T10:50:27.634Z,30.73
2019-05-16T10:53:22.699Z,31.02
2019-05-16T10:55:28.282Z,30.49
2019-05-16T10:57:57.661Z,30.67
2019-05-16T11:00:48.976Z,30.57
2019-05-16T11:02:58.926Z,30.81
2019-05-16T11:05:33.765Z,29.56
2019-05-16T11:10:53.858Z,32.18
2019-05-16T11:13:23.187Z,32.11
2019-05-16T11:15:52.484Z,29.61
2019-05-16T11:18:21.748Z,29.94
2019-05-16T11:20:51.016Z,31.12
2019-05-16T11:23:23.406Z,29.07
2019-05-16T11:25:51.374Z,28.44
2019-05-16T11:28:20.726Z,29.96
2019-05-16T11:30:50.131Z,28.95
2019-05-16T11:33:19.448Z,29.28
2019-05-16T11:35:48.732Z,29.18
2019-05-16T11:38:18.100Z,29.67
2019-05-16T11:40:47.843Z,29.19
2019-05-16T11:43:21.042Z,30.74
2019-05-16T11:45:48.258Z,29.90
2019-05-16T11:48:17.539Z,32.20
2019-05-16T11:50:48.006Z,30.28
2019-05-16T11:53:17.725Z,29.68
2019-05-16T11:55:54.467Z,28.02
2019-05-16T11:58:18.380Z,26.92
2019-05-16T12:00:48.394Z,27.60
2019-05-16T12:03:17.957Z,30.86
2019-05-16T12:05:48.482Z,31.96
2019-05-16T12:08:17.873Z,29.77
2019-05-16T12:10:47.433Z,30.93
2019-05-16T12:13:27.476Z,27.94
2019-05-16T12:15:47.758Z,30.17
2019-05-16T12:18:17.488Z,28.29
2019-05-16T12:20:46.962Z,29.66
2019-05-16T12:23:17.122Z,29.38
2019-05-16T12:25:47.591Z,30.51
2019-05-16T12:28:17.227Z,28.95
2019-05-16T12:30:47.227Z,27.37
2019-05-16T12:33:18.818Z,27.12
2019-05-16T12:35:47.711Z,26.57
2019-05-16T12:38:17.389Z,26.17
2019-05-16T12:40:47.947Z,27.28
2019-05-16T12:43:18.065Z,26.84
2019-05-16T12:45:47.665Z,26.98
2019-05-16T12:48:20.275Z,31.47
2019-05-16T12:50:48.383Z,31.76
2019-05-16T12:53:17.768Z,30.28
2019-05-16T12:55:47.571Z,27.92
2019-05-16T12:58:25.083Z,29.32
2019-05-16T13:00:54.207Z,26.94
2019-05-16T13:03:19.235Z,29.32
2019-05-16T13:05:48.507Z,30.94
2019-05-16T13:08:17.814Z,30.15
2019-05-16T13:10:47.351Z,28.39
2019-05-16T13:13:17.647Z,29.60
2019-05-16T13:15:47.682Z,28.74
2019-05-16T13:18:17.244Z,28.13
2019-05-16T13:20:46.872Z,29.24
2019-05-16T13:23:18.333Z,29.95
2019-05-16T13:25:48.145Z,30.24
2019-05-16T13:28:17.777Z,28.58
2019-05-16T13:30:47.350Z,28.65
2019-05-16T13:33:17.773Z,30.08
2019-05-16T13:35:47.413Z,29.05
2019-05-16T13:38:17.525Z,28.79
2019-05-16T13:40:46.975Z,29.45
2019-05-16T13:43:17.446Z,30.18
2019-05-16T13:45:47.421Z,29.23
2019-05-16T13:48:17.357Z,27.71
2019-05-16T13:50:47.366Z,29.03
2019-05-16T13:53:16.863Z,29.93
2019-05-16T13:55:46.268Z,29.04
2019-05-16T13:58:17.864Z,29.30
2019-05-16T14:00:48.072Z,27.30
2019-05-16T14:03:18.141Z,29.65
2019-05-16T14:05:47.935Z,30.92
2019-05-16T14:08:17.270Z,31.59
2019-05-16T14:10:48.723Z,29.50
2019-05-16T14:13:17.588Z,28.92
2019-05-16T14:15:47.456Z,29.94
2019-05-16T14:18:20.781Z,30.76
2019-05-16T14:20:50.204Z,30.44
2019-05-16T14:23:19.511Z,30.52
2019-05-16T14:25:48.829Z,31.76
2019-05-16T14:28:18.359Z,30.46
2019-05-16T14:30:47.910Z,30.66
2019-05-16T14:33:17.363Z,31.84
2019-05-16T14:35:47.390Z,30.04
2019-05-16T14:38:17.639Z,30.42
2019-05-16T14:40:50.203Z,31.67
2019-05-16T14:43:18.133Z,30.27
2019-05-16T14:45:47.463Z,30.44
2019-05-16T14:48:18.444Z,29.55
2019-05-16T14:50:47.883Z,29.43
2019-05-16T14:53:18.004Z,28.86
2019-05-16T14:55:47.836Z,31.74
2019-05-16T14:58:17.440Z,29.45
2019-05-16T15:00:48.974Z,30.24
2019-05-16T15:03:18.259Z,29.14
2019-05-16T15:05:48.188Z,29.57
2019-05-16T15:08:18.312Z,30.81
2019-05-16T15:10:47.687Z,29.92
2019-05-16T15:13:17.666Z,30.42
2019-05-16T15:15:47.041Z,29.06
2019-05-16T15:18:17.668Z,28.90
2019-05-16T15:20:47.286Z,28.65
2019-05-16T15:23:17.459Z,28.57
2019-05-16T15:25:47.090Z,30.57
2019-05-16T15:28:17.268Z,28.42
2019-05-16T15:30:47.025Z,31.10
2019-05-16T15:33:19.698Z,29.62
2019-05-16T15:35:47.509Z,29.49
2019-05-16T15:38:16.848Z,30.16
2019-05-16T15:40:48.205Z,30.25
2019-05-16T15:43:18.082Z,30.17
2019-05-16T15:45:52.773Z,28.91
2019-05-16T15:48:19.642Z,29.19
2019-05-16T15:50:48.949Z,29.60
2019-05-16T15:53:18.254Z,29.69
2019-05-16T15:55:47.978Z,29.21
2019-05-16T15:58:18.123Z,29.85
2019-05-16T16:00:49.776Z,29.42
2019-05-16T16:03:19.518Z,29.12
2019-05-16T16:05:48.951Z,30.26
2019-05-16T16:08:18.660Z,31.36
2019-05-16T16:10:48.183Z,31.25
2019-05-16T16:13:20.628Z,31.25
2019-05-16T16:15:54.196Z,31.21
2019-05-16T16:18:22.297Z,32.60
2019-05-16T16:20:51.557Z,31.48
2019-05-16T16:23:20.984Z,32.36
2019-05-16T16:25:51.531Z,31.68
2019-05-16T16:28:21.235Z,30.92
2019-05-16T16:30:50.515Z,31.44
2019-05-16T16:33:25.889Z,31.17
2019-05-16T16:35:50.977Z,31.80
2019-05-16T16:38:20.294Z,31.64
2019-05-16T16:40:49.659Z,31.71
2019-05-16T16:43:18.962Z,32.35
2019-05-16T16:45:48.311Z,31.03
2019-05-16T16:48:17.713Z,33.49
2019-05-16T16:50:47.084Z,33.62
2019-05-16T16:53:17.594Z,32.61
2019-05-16T16:55:47.717Z,32.52
2019-05-16T16:58:17.681Z,31.73
2019-05-16T17:00:47.886Z,32.39
2019-05-16T17:03:17.489Z,31.40
2019-05-16T17:05:46.886Z,30.94
2019-05-16T17:08:16.795Z,31.29
2019-05-16T17:10:47.703Z,31.24
2019-05-16T17:13:17.166Z,32.00
2019-05-16T17:15:47.276Z,32.86
2019-05-16T17:18:17.377Z,32.60
2019-05-16T17:20:47.759Z,33.25
2019-05-16T17:23:17.512Z,32.62
2019-05-16T17:25:47.317Z,32.93
2019-05-16T17:28:17.442Z,33.01
2019-05-16T17:30:47.226Z,31.65
2019-05-16T17:33:18.177Z,32.93
2019-05-16T17:35:49.018Z,33.66
2019-05-16T17:38:18.436Z,32.49
2019-05-16T17:40:49.527Z,32.46
2019-05-16T17:43:18.939Z,34.86
2019-05-16T17:45:48.511Z,34.47
2019-05-16T17:48:46.924Z,34.19
2019-05-16T17:54:55.874Z,34.00
2019-05-16T17:57:27.368Z,36.50
2019-05-16T17:59:57.402Z,36.71
2019-05-16T18:02:29.823Z,36.71
2019-05-16T18:04:59.165Z,37.99
2019-05-16T18:07:28.656Z,36.22
2019-05-16T18:09:58.044Z,37.15
2019-05-16T18:12:27.659Z,36.26
2019-05-16T18:14:58.355Z,37.48
2019-05-16T18:17:27.779Z,39.09
2019-05-16T18:19:57.238Z,38.31
2019-05-16T18:22:26.628Z,38.60
2019-05-16T18:24:57.837Z,37.75
2019-05-16T18:27:27.403Z,40.36
2019-05-16T18:29:56.761Z,37.93
2019-05-16T18:32:26.663Z,40.01
2019-05-16T18:34:59.308Z,39.04
2019-05-16T18:37:35.969Z,41.59
2019-05-16T18:40:07.990Z,39.88
2019-05-16T18:42:38.736Z,40.10
2019-05-16T18:45:10.014Z,41.33
2019-05-16T18:47:39.440Z,41.43
2019-05-16T18:50:09.985Z,42.41
2019-05-16T18:52:39.522Z,42.74
2019-05-16T18:55:10.510Z,44.89
2019-05-16T18:57:42.562Z,44.19
2019-05-16T19:01:08.555Z,45.60
2019-05-16T19:03:38.192Z,44.80
2019-05-16T19:06:10.693Z,47.39
2019-05-16T19:08:40.506Z,48.70
2019-05-16T19:11:13.146Z,47.52
2019-05-16T19:13:47.566Z,48.30
2019-05-16T19:16:17.327Z,49.20
2019-05-16T19:21:39.502Z,48.77
2019-05-16T19:25:18.867Z,48.47
2019-05-16T19:27:56.918Z,49.57
2019-05-16T19:30:26.418Z,48.23
2019-05-16T19:32:57.487Z,48.09
2019-05-16T19:35:33.093Z,49.66
2019-05-16T19:38:07.067Z,49.66
2019-05-16T19:40:37.545Z,50.44
2019-05-16T19:43:07.738Z,50.00
2019-05-16T19:45:37.556Z,49.89
2019-05-16T19:48:08.463Z,49.69
2019-05-16T19:50:37.867Z,48.84
2019-05-16T19:53:07.933Z,49.55
2019-05-16T19:55:37.507Z,51.16
2019-05-16T19:58:07.178Z,50.03
2019-05-16T20:04:00.314Z,49.50
2019-05-16T20:06:29.735Z,49.23
2019-05-16T20:08:59.088Z,50.30
2019-05-16T20:11:28.486Z,51.02
2019-05-16T20:13:57.856Z,50.26
2019-05-16T20:16:27.493Z,48.51
2019-05-16T20:18:56.814Z,49.41
2019-05-16T20:21:27.505Z,49.45
2019-05-16T20:23:57.052Z,51.48
2019-05-16T20:26:27.361Z,49.48
2019-05-16T20:28:59.487Z,51.29
2019-05-16T20:31:27.892Z,50.02
2019-05-16T20:33:57.331Z,50.77
2019-05-16T20:36:26.697Z,48.93
2019-05-16T20:38:56.082Z,49.34
2019-05-16T20:41:27.340Z,50.03
2019-05-16T20:43:57.190Z,51.92
2019-05-16T20:46:27.013Z,50.46
2019-05-16T20:48:58.713Z,51.54
2019-05-16T20:51:27.539Z,50.07
2019-05-16T20:53:57.756Z,51.36
2019-05-16T20:56:27.477Z,50.05
2019-05-16T20:58:57.567Z,52.87
2019-05-16T21:01:29.052Z,52.39
2019-05-16T21:04:01.659Z,52.22
2019-05-16T21:06:31.051Z,51.82
2019-05-16T21:09:00.848Z,52.15
2019-05-16T21:11:30.218Z,51.08
2019-05-16T21:13:59.621Z,52.75
2019-05-16T21:16:29.002Z,54.86
2019-05-16T21:18:58.731Z,53.42
2019-05-16T21:21:28.028Z,53.34
2019-05-16T21:23:57.509Z,52.31
2019-05-16T21:27:08.983Z,54.71
2019-05-16T21:29:38.426Z,54.71
2019-05-16T21:32:08.914Z,53.18
2019-05-16T21:34:39.395Z,53.62
2019-05-16T21:37:14.628Z,53.98
2019-05-16T21:39:39.792Z,54.45
2019-05-16T21:42:09.222Z,54.54
2019-05-16T21:44:38.601Z,53.44
2019-05-16T21:51:30.470Z,54.19
2019-05-16T22:03:48.477Z,55.52
2019-05-16T22:06:33.007Z,57.79
2019-05-16T22:09:32.240Z,56.82
2019-05-16T22:12:31.843Z,56.66
2019-05-16T22:17:48.387Z,57.94
2019-05-16T22:20:32.803Z,56.65
2019-05-16T22:23:32.350Z,56.80
2019-05-16T22:26:31.833Z,56.35
2019-05-16T22:32:36.497Z,55.04
2019-05-16T22:35:32.591Z,55.43
2019-05-16T22:40:49.041Z,53.21
2019-05-16T22:43:33.747Z,53.62
2019-05-16T22:46:03.150Z,54.03
2019-05-16T22:48:32.417Z,54.27
2019-05-16T22:51:31.683Z,54.06
2019-05-16T22:54:00.982Z,53.08
2019-05-16T22:56:30.266Z,53.31
2019-05-16T22:58:59.558Z,52.45
2019-05-16T23:01:31.693Z,52.16
2019-05-16T23:04:30.966Z,52.32
2019-05-16T23:07:00.330Z,52.46
2019-05-16T23:09:32.398Z,52.79
2019-05-16T23:12:31.360Z,52.92
2019-05-16T23:15:00.643Z,52.34
2019-05-16T23:17:29.943Z,54.00
2019-05-16T23:20:32.163Z,54.24
2019-05-16T23:23:01.457Z,54.10
2019-05-16T23:25:33.713Z,54.42
2019-05-16T23:28:03.007Z,54.88
2019-05-16T23:30:32.334Z,53.67
2019-05-16T23:33:31.692Z,52.83
2019-05-16T23:36:34.195Z,53.08
2019-05-16T23:39:06.266Z,52.69
2019-05-16T23:41:36.722Z,53.04
2019-05-16T23:44:07.431Z,55.38
2019-05-16T23:46:36.936Z,53.87
2019-05-16T23:49:07.268Z,54.65
2019-05-16T23:51:36.904Z,53.64
2019-05-16T23:54:06.817Z,56.29
2019-05-16T23:56:37.240Z,56.31
2019-05-16T23:59:06.807Z,54.44
